Time;durP1;ratioP1;P1;durP2;ratioP2;P2;SDS_P1;SDS_P2;PMS_P1;PMS_P2;Temp;Humidity;BMP_temperature;BMP_pressure;BME280_temperature;BME280_humidity;BME280_pressure;Samples;Min_cycle;Max_cycle;Signal;HPM_P1;HPM_P2
2023/12/21 00:00:23;;;;;;;0.00;0.00;;;;;;;;;;1729563;28;20215;-64
2023/12/21 00:01:15;;;;;;;0.00;0.00;;;;;;;;;;1730303;28;20986;-64
2023/12/21 00:02:06;;;;;;;0.00;0.00;;;;;;;;;;1731195;28;20231;-64
2023/12/21 00:02:57;;;;;;;0.00;0.00;;;;;;;;;;1731054;28;21422;-64
2023/12/21 00:03:49;;;;;;;0.00;0.00;;;;;;;;;;1732000;28;20287;-65
2023/12/21 00:04:40;;;;;;;0.00;0.00;;;;;;;;;;1733077;28;20211;-65
2023/12/21 00:05:33;;;;;;;0.00;0.00;;;;;;;;;;1731209;28;20568;-64
2023/12/21 00:06:25;;;;;;;0.00;0.00;;;;;;;;;;1733103;28;20454;-65
2023/12/21 00:07:16;;;;;;;0.00;0.00;;;;;;;;;;1731243;28;20207;-64
2023/12/21 00:08:08;;;;;;;0.00;0.00;;;;;;;;;;1731424;28;20234;-65
2023/12/21 00:08:59;;;;;;;0.00;0.00;;;;;;;;;;1730887;28;20699;-64
2023/12/21 00:09:50;;;;;;;0.00;0.00;;;;;;;;;;1731588;28;20195;-64
2023/12/21 00:10:42;;;;;;;0.00;0.00;;;;;;;;;;1729775;28;20346;-64
2023/12/21 00:11:33;;;;;;;0.00;0.00;;;;;;;;;;1731400;28;20306;-63
2023/12/21 00:12:24;;;;;;;0.00;0.00;;;;;;;;;;1731535;28;20507;-64
2023/12/21 00:13:16;;;;;;;0.00;0.00;;;;;;;;;;1731410;28;20289;-64
2023/12/21 00:14:07;;;;;;;0.00;0.00;;;;;;;;;;1730974;28;20369;-64
2023/12/21 00:14:58;;;;;;;0.03;0.03;;;;;;;;;;1731377;28;20204;-64
2023/12/21 00:15:50;;;;;;;0.00;0.00;;;;;;;;;;1729273;28;20710;-64
2023/12/21 00:16:41;;;;;;;0.00;0.00;;;;;;;;;;1731373;28;20207;-65
2023/12/21 00:17:32;;;;;;;0.00;0.00;;;;;;;;;;1731078;28;20214;-65
2023/12/21 00:18:24;;;;;;;0.00;0.00;;;;;;;;;;1730925;28;20726;-64
2023/12/21 00:19:15;;;;;;;0.00;0.00;;;;;;;;;;1731021;28;20208;-65
2023/12/21 00:20:09;;;;;;;0.00;0.00;;;;;;;;;;1731056;28;20265;-65
2023/12/21 00:21:02;;;;;;;0.00;0.00;;;;;;;;;;1729948;28;20620;-65
2023/12/21 00:21:53;;;;;;;0.00;0.00;;;;;;;;;;1730997;28;20313;-65
2023/12/21 00:22:45;;;;;;;0.00;0.00;;;;;;;;;;1731137;28;20658;-65
2023/12/21 00:23:36;;;;;;;0.00;0.00;;;;;;;;;;1731031;28;20211;-65
2023/12/21 00:24:27;;;;;;;0.00;0.00;;;;;;;;;;1731361;28;20211;-65
2023/12/21 00:25:19;;;;;;;0.00;0.00;;;;;;;;;;1729918;28;20298;-65
2023/12/21 00:26:10;;;;;;;0.00;0.00;;;;;;;;;;1731152;28;20273;-66
2023/12/21 00:27:01;;;;;;;0.15;0.15;;;;;;;;;;1731086;28;20207;-65
2023/12/21 00:27:54;;;;;;;0.05;0.05;;;;;;;;;;1730783;28;20223;-64
2023/12/21 00:28:45;;;;;;;0.00;0.00;;;;;;;;;;1731003;28;20739;-65
2023/12/21 00:29:36;;;;;;;0.00;0.00;;;;;;;;;;1731553;28;20614;-65
2023/12/21 00:30:28;;;;;;;0.00;0.00;;;;;;;;;;1730168;28;20681;-65
2023/12/21 00:31:20;;;;;;;0.00;0.00;;;;;;;;;;1731561;28;20330;-64
2023/12/21 00:32:11;;;;;;;0.00;0.00;;;;;;;;;;1731658;28;20244;-65
2023/12/21 00:33:10;;;;;;;0.00;0.00;;;;;;;;;;1732749;28;20353;-65
2023/12/21 00:34:01;;;;;;;0.00;0.00;;;;;;;;;;1732358;28;20495;-64
2023/12/21 00:34:53;;;;;;;0.00;0.00;;;;;;;;;;1733328;28;20262;-64
2023/12/21 00:35:46;;;;;;;0.00;0.00;;;;;;;;;;1730336;28;20569;-64
2023/12/21 00:36:39;;;;;;;0.00;0.00;;;;;;;;;;1732620;28;20286;-67
2023/12/21 00:37:36;;;;;;;0.00;0.00;;;;;;;;;;1732919;28;20574;-65
2023/12/21 00:38:27;;;;;;;0.00;0.00;;;;;;;;;;1732776;28;20243;-65
2023/12/21 00:39:18;;;;;;;0.00;0.00;;;;;;;;;;1732785;28;20219;-64
2023/12/21 00:40:10;;;;;;;0.00;0.00;;;;;;;;;;1733005;28;20282;-64
2023/12/21 00:41:01;;;;;;;0.00;0.00;;;;;;;;;;1731566;28;20223;-65
2023/12/21 00:41:52;;;;;;;0.00;0.00;;;;;;;;;;1732798;28;20196;-66
2023/12/21 00:42:45;;;;;;;0.00;0.00;;;;;;;;;;1732366;28;20204;-66
2023/12/21 00:43:36;;;;;;;0.00;0.00;;;;;;;;;;1733031;28;20214;-65
2023/12/21 00:44:27;;;;;;;0.00;0.00;;;;;;;;;;1733104;28;20634;-65
2023/12/21 00:45:19;;;;;;;0.00;0.00;;;;;;;;;;1731739;28;20587;-65
2023/12/21 00:46:10;;;;;;;0.00;0.00;;;;;;;;;;1732699;28;20207;-66
2023/12/21 00:47:03;;;;;;;0.00;0.00;;;;;;;;;;1732428;28;20206;-65
2023/12/21 00:47:55;;;;;;;0.00;0.00;;;;;;;;;;1732565;28;20195;-65
2023/12/21 00:48:46;;;;;;;0.00;0.00;;;;;;;;;;1730377;28;20211;-65
2023/12/21 00:49:38;;;;;;;0.00;0.00;;;;;;;;;;1732970;28;20191;-64
2023/12/21 00:50:29;;;;;;;0.00;0.00;;;;;;;;;;1728933;28;20211;-66
2023/12/21 00:51:20;;;;;;;0.00;0.00;;;;;;;;;;1732541;28;20247;-64
2023/12/21 00:52:14;;;;;;;0.00;0.00;;;;;;;;;;1732737;28;20234;-65
2023/12/21 00:53:05;;;;;;;0.00;0.00;;;;;;;;;;1732797;28;20203;-65
2023/12/21 00:53:56;;;;;;;0.00;0.00;;;;;;;;;;1732674;28;20235;-65
2023/12/21 00:54:48;;;;;;;0.00;0.00;;;;;;;;;;1732901;28;20203;-65
2023/12/21 00:55:39;;;;;;;0.00;0.00;;;;;;;;;;1731236;28;20242;-65
2023/12/21 00:56:30;;;;;;;0.08;0.08;;;;;;;;;;1733248;28;20196;-65
2023/12/21 00:57:23;;;;;;;0.00;0.00;;;;;;;;;;1732264;28;20243;-65
2023/12/21 00:58:14;;;;;;;0.00;0.00;;;;;;;;;;1732739;28;20657;-65
2023/12/21 00:59:05;;;;;;;0.00;0.00;;;;;;;;;;1732153;28;20226;-65
2023/12/21 00:59:57;;;;;;;0.00;0.00;;;;;;;;;;1732727;28;20211;-65
2023/12/21 01:00:48;;;;;;;0.00;0.00;;;;;;;;;;1730951;28;20239;-64
2023/12/21 01:01:40;;;;;;;0.00;0.00;;;;;;;;;;1731514;28;20742;-64
2023/12/21 01:02:31;;;;;;;0.00;0.00;;;;;;;;;;1732292;28;20227;-65
2023/12/21 01:03:22;;;;;;;0.00;0.00;;;;;;;;;;1732333;28;20211;-64
2023/12/21 01:04:14;;;;;;;0.00;0.00;;;;;;;;;;1732265;28;20219;-65
2023/12/21 01:05:05;;;;;;;0.00;0.00;;;;;;;;;;1732360;28;20294;-65
2023/12/21 01:05:56;;;;;;;0.00;0.00;;;;;;;;;;1731324;28;20747;-64
2023/12/21 01:06:48;;;;;;;0.00;0.00;;;;;;;;;;1731746;28;20286;-64
2023/12/21 01:07:41;;;;;;;0.00;0.00;;;;;;;;;;1731812;28;20200;-65
2023/12/21 01:08:33;;;;;;;0.00;0.00;;;;;;;;;;1732660;28;20602;-64
2023/12/21 01:09:24;;;;;;;0.00;0.00;;;;;;;;;;1731710;28;20261;-64
2023/12/21 01:10:16;;;;;;;0.00;0.00;;;;;;;;;;1732252;28;20261;-64
2023/12/21 01:11:07;;;;;;;0.00;0.00;;;;;;;;;;1730891;28;20243;-64
2023/12/21 01:11:58;;;;;;;0.00;0.00;;;;;;;;;;1732060;28;20677;-64
2023/12/21 01:12:51;;;;;;;0.00;0.00;;;;;;;;;;1732348;28;20659;-65
2023/12/21 01:13:42;;;;;;;0.00;0.00;;;;;;;;;;1731868;28;20219;-65
2023/12/21 01:14:34;;;;;;;0.00;0.00;;;;;;;;;;1732661;28;20211;-64
2023/12/21 01:15:26;;;;;;;0.00;0.00;;;;;;;;;;1730705;28;20756;-65
2023/12/21 01:16:17;;;;;;;0.00;0.00;;;;;;;;;;1732347;28;20673;-65
2023/12/21 01:17:08;;;;;;;0.00;0.00;;;;;;;;;;1732154;28;20666;-64
2023/12/21 01:18:00;;;;;;;0.00;0.00;;;;;;;;;;1732083;28;20203;-64
2023/12/21 01:18:51;;;;;;;0.00;0.00;;;;;;;;;;1732058;28;20245;-64
2023/12/21 01:19:43;;;;;;;0.00;0.00;;;;;;;;;;1732358;28;20195;-65
2023/12/21 01:20:34;;;;;;;0.00;0.00;;;;;;;;;;1731347;28;20254;-65
2023/12/21 01:21:26;;;;;;;0.00;0.00;;;;;;;;;;1732460;28;20207;-64
2023/12/21 01:22:17;;;;;;;0.00;0.00;;;;;;;;;;1731899;28;20261;-64
2023/12/21 01:23:09;;;;;;;0.00;0.00;;;;;;;;;;1732644;28;20697;-64
2023/12/21 01:24:01;;;;;;;0.00;0.00;;;;;;;;;;1731941;28;20939;-64
2023/12/21 01:24:52;;;;;;;0.00;0.00;;;;;;;;;;1730238;28;20204;-64
2023/12/21 01:25:44;;;;;;;0.00;0.00;;;;;;;;;;1730566;28;20317;-64
2023/12/21 01:26:35;;;;;;;0.00;0.00;;;;;;;;;;1732742;28;20257;-64
2023/12/21 01:27:26;;;;;;;0.00;0.00;;;;;;;;;;1731650;28;20211;-64
2023/12/21 01:28:18;;;;;;;0.00;0.00;;;;;;;;;;1732023;28;20259;-64
2023/12/21 01:29:09;;;;;;;0.00;0.00;;;;;;;;;;1731916;28;20649;-64
2023/12/21 01:30:00;;;;;;;0.00;0.00;;;;;;;;;;1732573;28;20204;-65
2023/12/21 01:30:52;;;;;;;0.00;0.00;;;;;;;;;;1730572;28;20884;-64
2023/12/21 01:31:43;;;;;;;0.00;0.00;;;;;;;;;;1732208;28;20581;-65
2023/12/21 01:32:34;;;;;;;0.00;0.00;;;;;;;;;;1731888;28;20579;-65
2023/12/21 01:33:26;;;;;;;0.00;0.00;;;;;;;;;;1732173;28;20307;-66
2023/12/21 01:34:17;;;;;;;0.00;0.00;;;;;;;;;;1732059;28;20215;-64
2023/12/21 01:35:08;;;;;;;0.20;0.20;;;;;;;;;;1731996;28;20273;-65
2023/12/21 01:36:01;;;;;;;0.10;0.10;;;;;;;;;;1729757;28;20338;-65
2023/12/21 01:36:52;;;;;;;0.00;0.00;;;;;;;;;;1732049;28;20756;-64
2023/12/21 01:37:43;;;;;;;0.00;0.00;;;;;;;;;;1731985;28;20612;-64
2023/12/21 01:38:36;;;;;;;0.00;0.00;;;;;;;;;;1732383;28;20238;-64
2023/12/21 01:39:27;;;;;;;0.00;0.00;;;;;;;;;;1731897;28;20211;-64
2023/12/21 01:40:18;;;;;;;0.00;0.00;;;;;;;;;;1731019;28;20208;-65
2023/12/21 01:41:10;;;;;;;0.00;0.00;;;;;;;;;;1731942;28;20230;-65
2023/12/21 01:42:01;;;;;;;0.00;0.00;;;;;;;;;;1732068;28;20215;-65
2023/12/21 01:42:53;;;;;;;0.00;0.00;;;;;;;;;;1731974;28;20203;-65
2023/12/21 01:43:44;;;;;;;0.00;0.00;;;;;;;;;;1731377;28;20662;-64
2023/12/21 01:44:35;;;;;;;0.00;0.00;;;;;;;;;;1732540;28;20670;-65
2023/12/21 01:45:27;;;;;;;0.00;0.00;;;;;;;;;;1731446;28;20701;-64
2023/12/21 01:46:18;;;;;;;0.00;0.00;;;;;;;;;;1731494;28;20208;-65
2023/12/21 01:47:11;;;;;;;0.00;0.00;;;;;;;;;;1731699;28;20677;-64
2023/12/21 01:48:02;;;;;;;0.00;0.00;;;;;;;;;;1731846;28;20659;-65
2023/12/21 01:48:54;;;;;;;0.00;0.00;;;;;;;;;;1729685;28;20766;-64
2023/12/21 01:49:45;;;;;;;0.00;0.00;;;;;;;;;;1731957;28;20346;-63
2023/12/21 01:50:37;;;;;;;0.00;0.00;;;;;;;;;;1731025;28;20302;-64
2023/12/21 01:51:28;;;;;;;0.00;0.00;;;;;;;;;;1731890;28;20277;-64
2023/12/21 01:52:20;;;;;;;0.00;0.00;;;;;;;;;;1731673;28;20207;-64
2023/12/21 01:53:13;;;;;;;0.00;0.00;;;;;;;;;;1732140;28;20447;-64
2023/12/21 01:54:07;;;;;;;0.00;0.00;;;;;;;;;;1731601;28;20207;-64
2023/12/21 01:54:59;;;;;;;0.00;0.00;;;;;;;;;;1732237;28;20295;-64
2023/12/21 01:55:50;;;;;;;0.00;0.00;;;;;;;;;;1730298;28;20737;-64
2023/12/21 01:56:43;;;;;;;0.00;0.00;;;;;;;;;;1732119;28;20204;-62
2023/12/21 01:57:34;;;;;;;0.00;0.00;;;;;;;;;;1732064;28;20801;-64
2023/12/21 01:58:25;;;;;;;0.00;0.00;;;;;;;;;;1731971;28;20250;-64
2023/12/21 01:59:17;;;;;;;0.00;0.00;;;;;;;;;;1732010;28;20207;-64
2023/12/21 02:00:08;;;;;;;0.00;0.00;;;;;;;;;;1731751;28;20265;-64
2023/12/21 02:00:59;;;;;;;0.00;0.00;;;;;;;;;;1730571;28;20246;-67
2023/12/21 02:01:51;;;;;;;0.00;0.00;;;;;;;;;;1731943;28;20737;-65
2023/12/21 02:02:42;;;;;;;0.00;0.00;;;;;;;;;;1731376;28;20561;-66
2023/12/21 02:03:34;;;;;;;0.00;0.00;;;;;;;;;;1732366;28;20614;-63
2023/12/21 02:04:26;;;;;;;0.00;0.00;;;;;;;;;;1731599;28;20701;-63
2023/12/21 02:05:17;;;;;;;0.00;0.00;;;;;;;;;;1730871;28;20298;-63
2023/12/21 02:06:08;;;;;;;0.00;0.00;;;;;;;;;;1731577;28;20215;-64
2023/12/21 02:07:00;;;;;;;0.00;0.00;;;;;;;;;;1731768;28;20268;-64
2023/12/21 02:07:52;;;;;;;0.00;0.00;;;;;;;;;;1731701;28;20675;-64
2023/12/21 02:08:43;;;;;;;0.00;0.00;;;;;;;;;;1731576;28;20204;-63
2023/12/21 02:09:35;;;;;;;0.00;0.00;;;;;;;;;;1732550;28;20214;-64
2023/12/21 02:10:27;;;;;;;0.00;0.00;;;;;;;;;;1730217;28;20250;-65
2023/12/21 02:11:18;;;;;;;0.00;0.00;;;;;;;;;;1732041;28;20273;-65
2023/12/21 02:12:10;;;;;;;0.00;0.00;;;;;;;;;;1731568;28;20729;-65
2023/12/21 02:13:01;;;;;;;0.10;0.10;;;;;;;;;;1732118;28;20603;-64
2023/12/21 02:13:53;;;;;;;0.00;0.00;;;;;;;;;;1731722;28;20231;-65
2023/12/21 02:14:44;;;;;;;0.00;0.00;;;;;;;;;;1731918;28;20291;-63
2023/12/21 02:15:35;;;;;;;0.00;0.00;;;;;;;;;;1730657;28;20286;-64
2023/12/21 02:16:28;;;;;;;0.00;0.00;;;;;;;;;;1731773;28;20625;-64
2023/12/21 02:17:20;;;;;;;0.00;0.00;;;;;;;;;;1731636;28;20216;-63
2023/12/21 02:18:13;;;;;;;0.00;0.00;;;;;;;;;;1731530;28;20585;-62
2023/12/21 02:19:05;;;;;;;0.00;0.00;;;;;;;;;;1731467;28;20354;-63
2023/12/21 02:19:56;;;;;;;0.00;0.00;;;;;;;;;;1732037;28;20199;-63
2023/12/21 02:20:49;;;;;;;0.00;0.00;;;;;;;;;;1730118;28;20228;-64
2023/12/21 02:21:42;;;;;;;0.00;0.00;;;;;;;;;;1732625;28;20273;-63
2023/12/21 02:22:34;;;;;;;0.00;0.00;;;;;;;;;;1731805;28;20250;-64
2023/12/21 02:23:27;;;;;;;0.00;0.00;;;;;;;;;;1732024;28;20323;-63
2023/12/21 02:24:19;;;;;;;0.00;0.00;;;;;;;;;;1731760;28;20214;-63
2023/12/21 02:25:11;;;;;;;0.00;0.00;;;;;;;;;;1731768;28;20207;-64
2023/12/21 02:26:03;;;;;;;0.00;0.00;;;;;;;;;;1730729;28;20235;-63
2023/12/21 02:26:54;;;;;;;0.00;0.00;;;;;;;;;;1731687;28;20674;-63
2023/12/21 02:27:48;;;;;;;0.00;0.00;;;;;;;;;;1730943;28;20231;-64
2023/12/21 02:28:40;;;;;;;0.00;0.00;;;;;;;;;;1731863;28;20292;-64
2023/12/21 02:29:31;;;;;;;0.00;0.00;;;;;;;;;;1731982;28;20219;-64
2023/12/21 02:30:23;;;;;;;0.00;0.00;;;;;;;;;;1730488;28;20221;-63
2023/12/21 02:31:14;;;;;;;0.00;0.00;;;;;;;;;;1731574;28;20231;-64
2023/12/21 02:32:05;;;;;;;0.00;0.00;;;;;;;;;;1731558;28;20208;-64
2023/12/21 02:32:57;;;;;;;0.00;0.00;;;;;;;;;;1731445;28;20368;-63
2023/12/21 02:33:48;;;;;;;0.00;0.00;;;;;;;;;;1731481;28;20203;-63
2023/12/21 02:34:40;;;;;;;0.00;0.00;;;;;;;;;;1732524;28;20222;-63
2023/12/21 02:35:31;;;;;;;0.00;0.00;;;;;;;;;;1729670;28;20317;-65
2023/12/21 02:36:23;;;;;;;0.00;0.00;;;;;;;;;;1731895;28;20242;-63
2023/12/21 02:37:14;;;;;;;0.00;0.00;;;;;;;;;;1731211;28;20223;-63
2023/12/21 02:38:05;;;;;;;0.00;0.00;;;;;;;;;;1731942;28;20259;-63
2023/12/21 02:38:57;;;;;;;0.00;0.00;;;;;;;;;;1730998;28;20714;-63
2023/12/21 02:39:50;;;;;;;0.00;0.00;;;;;;;;;;1732110;28;20207;-63
2023/12/21 02:40:42;;;;;;;0.00;0.00;;;;;;;;;;1735596;28;20250;-64
2023/12/21 02:41:33;;;;;;;0.00;0.00;;;;;;;;;;1739459;28;20268;-64
2023/12/21 02:42:24;;;;;;;0.00;0.00;;;;;;;;;;1738815;28;20642;-64
2023/12/21 02:43:16;;;;;;;0.00;0.00;;;;;;;;;;1739171;28;20219;-64
2023/12/21 02:44:07;;;;;;;0.00;0.00;;;;;;;;;;1738180;28;20207;-64
2023/12/21 02:44:59;;;;;;;0.00;0.00;;;;;;;;;;1738695;28;20253;-63
2023/12/21 02:45:50;;;;;;;0.00;0.00;;;;;;;;;;1736491;28;20300;-64
2023/12/21 02:46:41;;;;;;;0.00;0.00;;;;;;;;;;1738998;28;20199;-64
2023/12/21 02:47:33;;;;;;;0.00;0.00;;;;;;;;;;1737863;28;20215;-64
2023/12/21 02:48:24;;;;;;;0.00;0.00;;;;;;;;;;1736409;28;20231;-64
2023/12/21 02:49:15;;;;;;;0.00;0.00;;;;;;;;;;1738454;28;20264;-65
2023/12/21 02:50:08;;;;;;;0.00;0.00;;;;;;;;;;1738226;28;20231;-65
2023/12/21 02:51:00;;;;;;;0.00;0.00;;;;;;;;;;1737257;28;20238;-65
2023/12/21 02:51:51;;;;;;;0.03;0.03;;;;;;;;;;1738340;28;20221;-65
2023/12/21 02:52:43;;;;;;;0.00;0.00;;;;;;;;;;1738658;28;20265;-64
2023/12/21 02:53:34;;;;;;;0.00;0.00;;;;;;;;;;1738579;28;20261;-65
2023/12/21 02:54:26;;;;;;;0.00;0.00;;;;;;;;;;1738387;28;20211;-64
2023/12/21 02:55:19;;;;;;;0.00;0.00;;;;;;;;;;1737764;28;20665;-64
2023/12/21 02:56:10;;;;;;;0.00;0.00;;;;;;;;;;1736410;28;20674;-63
2023/12/21 02:57:02;;;;;;;0.00;0.00;;;;;;;;;;1738132;28;20245;-65
2023/12/21 02:57:53;;;;;;;0.00;0.00;;;;;;;;;;1738192;28;20207;-65
2023/12/21 02:58:45;;;;;;;0.00;0.00;;;;;;;;;;1738502;28;20203;-65
2023/12/21 02:59:36;;;;;;;0.00;0.00;;;;;;;;;;1738035;28;20704;-66
2023/12/21 03:00:28;;;;;;;0.00;0.00;;;;;;;;;;1736838;28;20297;-65
2023/12/21 03:01:19;;;;;;;0.00;0.00;;;;;;;;;;1738427;28;20207;-65
2023/12/21 03:02:11;;;;;;;0.00;0.00;;;;;;;;;;1738069;28;20329;-65
2023/12/21 03:03:02;;;;;;;0.00;0.00;;;;;;;;;;1738226;28;20533;-65
2023/12/21 03:03:54;;;;;;;0.00;0.00;;;;;;;;;;1738167;28;20207;-65
2023/12/21 03:04:46;;;;;;;0.00;0.00;;;;;;;;;;1738965;28;20694;-65
2023/12/21 03:05:37;;;;;;;0.00;0.00;;;;;;;;;;1737346;28;20257;-65
2023/12/21 03:06:29;;;;;;;0.00;0.00;;;;;;;;;;1738095;28;20207;-65
2023/12/21 03:07:20;;;;;;;0.00;0.00;;;;;;;;;;1738187;28;20626;-64
2023/12/21 03:08:11;;;;;;;0.00;0.00;;;;;;;;;;1738315;28;20417;-64
2023/12/21 03:09:03;;;;;;;0.00;0.00;;;;;;;;;;1738093;28;20787;-64
2023/12/21 03:09:55;;;;;;;0.00;0.00;;;;;;;;;;1738812;28;20524;-64
2023/12/21 03:10:48;;;;;;;0.00;0.00;;;;;;;;;;1736987;28;20231;-65
2023/12/21 03:11:40;;;;;;;0.00;0.00;;;;;;;;;;1737277;28;20632;-64
2023/12/21 03:12:31;;;;;;;0.00;0.00;;;;;;;;;;1737842;28;20214;-66
2023/12/21 03:13:23;;;;;;;0.00;0.00;;;;;;;;;;1738718;28;20202;-64
2023/12/21 03:14:14;;;;;;;0.00;0.00;;;;;;;;;;1738260;28;20271;-64
2023/12/21 03:15:06;;;;;;;0.00;0.00;;;;;;;;;;1737909;28;20678;-64
2023/12/21 03:15:57;;;;;;;0.00;0.00;;;;;;;;;;1736335;28;20234;-64
2023/12/21 03:16:49;;;;;;;0.00;0.00;;;;;;;;;;1737911;28;20329;-62
2023/12/21 03:17:40;;;;;;;0.00;0.00;;;;;;;;;;1738307;28;20260;-63
2023/12/21 03:18:32;;;;;;;0.00;0.00;;;;;;;;;;1738032;28;20227;-63
2023/12/21 03:19:23;;;;;;;0.00;0.00;;;;;;;;;;1738094;28;20660;-64
2023/12/21 03:20:15;;;;;;;0.00;0.00;;;;;;;;;;1737289;28;20273;-64
2023/12/21 03:21:06;;;;;;;0.00;0.00;;;;;;;;;;1737968;28;20207;-64
2023/12/21 03:21:58;;;;;;;0.00;0.00;;;;;;;;;;1738383;28;20199;-64
2023/12/21 03:22:49;;;;;;;0.00;0.00;;;;;;;;;;1737886;28;20620;-64
2023/12/21 03:23:40;;;;;;;0.00;0.00;;;;;;;;;;1738702;28;20202;-64
2023/12/21 03:24:32;;;;;;;0.00;0.00;;;;;;;;;;1738274;28;20210;-64
2023/12/21 03:25:23;;;;;;;0.00;0.00;;;;;;;;;;1736854;28;20253;-64
2023/12/21 03:26:15;;;;;;;0.00;0.00;;;;;;;;;;1738319;28;20281;-64
2023/12/21 03:27:09;;;;;;;0.00;0.00;;;;;;;;;;1737805;28;20222;-64
2023/12/21 03:28:00;;;;;;;0.00;0.00;;;;;;;;;;1738170;28;20199;-64
2023/12/21 03:28:51;;;;;;;0.00;0.00;;;;;;;;;;1737847;28;20199;-64
2023/12/21 03:29:44;;;;;;;0.00;0.00;;;;;;;;;;1738673;28;20213;-64
2023/12/21 03:30:35;;;;;;;0.00;0.00;;;;;;;;;;1736949;28;20239;-64
2023/12/21 03:31:26;;;;;;;0.00;0.00;;;;;;;;;;1738366;28;20230;-64
2023/12/21 03:32:18;;;;;;;0.00;0.00;;;;;;;;;;1738129;28;20203;-64
2023/12/21 03:33:09;;;;;;;0.00;0.00;;;;;;;;;;1738314;28;20294;-64
2023/12/21 03:34:00;;;;;;;0.00;0.00;;;;;;;;;;1738165;28;20295;-64
2023/12/21 03:34:52;;;;;;;0.00;0.00;;;;;;;;;;1738828;28;20276;-64
2023/12/21 03:35:43;;;;;;;0.00;0.00;;;;;;;;;;1736131;28;20238;-65
2023/12/21 03:36:34;;;;;;;0.00;0.00;;;;;;;;;;1738772;28;20214;-65
2023/12/21 03:37:27;;;;;;;0.00;0.00;;;;;;;;;;1737893;28;20292;-64
2023/12/21 03:38:18;;;;;;;0.00;0.00;;;;;;;;;;1738659;28;20226;-65
2023/12/21 03:39:09;;;;;;;0.00;0.00;;;;;;;;;;1738221;28;20666;-64
2023/12/21 03:40:01;;;;;;;0.00;0.00;;;;;;;;;;1738616;28;20578;-65
2023/12/21 03:40:52;;;;;;;0.00;0.00;;;;;;;;;;1737098;28;20321;-64
2023/12/21 03:41:45;;;;;;;0.00;0.00;;;;;;;;;;1738693;28;20538;-65
2023/12/21 03:42:37;;;;;;;0.00;0.00;;;;;;;;;;1738332;28;20957;-64
2023/12/21 03:43:28;;;;;;;0.00;0.00;;;;;;;;;;1738522;28;20263;-64
2023/12/21 03:44:20;;;;;;;0.00;0.00;;;;;;;;;;1738286;28;20207;-64
2023/12/21 03:45:11;;;;;;;0.00;0.00;;;;;;;;;;1737960;28;20658;-64
2023/12/21 03:46:02;;;;;;;0.00;0.00;;;;;;;;;;1737455;28;20235;-64
2023/12/21 03:46:54;;;;;;;0.00;0.00;;;;;;;;;;1733844;28;20206;-64
2023/12/21 03:47:45;;;;;;;0.00;0.00;;;;;;;;;;1738437;28;20211;-65
2023/12/21 03:48:36;;;;;;;0.00;0.00;;;;;;;;;;1736317;28;20682;-63
2023/12/21 03:49:28;;;;;;;0.00;0.00;;;;;;;;;;1738537;28;20219;-64
2023/12/21 03:50:19;;;;;;;0.00;0.00;;;;;;;;;;1737711;28;20620;-64
2023/12/21 03:51:11;;;;;;;0.00;0.00;;;;;;;;;;1737644;28;20295;-64
2023/12/21 03:52:02;;;;;;;0.00;0.00;;;;;;;;;;1738229;28;20207;-65
2023/12/21 03:52:54;;;;;;;0.00;0.00;;;;;;;;;;1738657;28;20286;-65
2023/12/21 03:53:45;;;;;;;0.00;0.00;;;;;;;;;;1738859;28;20612;-64
2023/12/21 03:54:36;;;;;;;0.00;0.00;;;;;;;;;;1738629;28;20202;-63
2023/12/21 03:55:28;;;;;;;0.00;0.00;;;;;;;;;;1737171;28;20282;-63
2023/12/21 03:56:19;;;;;;;0.00;0.00;;;;;;;;;;1738607;28;20214;-64
2023/12/21 03:57:12;;;;;;;0.10;0.10;;;;;;;;;;1738088;28;20203;-64
2023/12/21 03:58:04;;;;;;;0.00;0.00;;;;;;;;;;1738563;28;20618;-63
2023/12/21 03:58:55;;;;;;;0.00;0.00;;;;;;;;;;1738171;28;20283;-63
2023/12/21 03:59:46;;;;;;;0.00;0.00;;;;;;;;;;1739012;28;20260;-63
2023/12/21 04:00:38;;;;;;;0.00;0.00;;;;;;;;;;1736895;28;20230;-64
2023/12/21 04:01:29;;;;;;;0.00;0.00;;;;;;;;;;1738160;28;20214;-63
2023/12/21 04:02:20;;;;;;;0.00;0.00;;;;;;;;;;1737926;28;20211;-64
2023/12/21 04:03:12;;;;;;;0.00;0.00;;;;;;;;;;1738313;28;20262;-63
2023/12/21 04:04:03;;;;;;;0.00;0.00;;;;;;;;;;1737947;28;20546;-63
2023/12/21 04:04:54;;;;;;;0.00;0.00;;;;;;;;;;1738215;28;20195;-64
2023/12/21 04:05:46;;;;;;;0.00;0.00;;;;;;;;;;1736936;28;20234;-64
2023/12/21 04:06:37;;;;;;;0.00;0.00;;;;;;;;;;1738412;28;20359;-64
2023/12/21 04:07:29;;;;;;;0.00;0.00;;;;;;;;;;1738422;28;20202;-64
2023/12/21 04:08:21;;;;;;;0.00;0.00;;;;;;;;;;1739718;28;20276;-64
2023/12/21 04:09:13;;;;;;;0.00;0.00;;;;;;;;;;1739482;28;20206;-63
2023/12/21 04:10:04;;;;;;;0.00;0.00;;;;;;;;;;1739746;28;20240;-64
2023/12/21 04:10:56;;;;;;;0.00;0.00;;;;;;;;;;1738070;28;20237;-63
2023/12/21 04:11:47;;;;;;;0.00;0.00;;;;;;;;;;1739815;28;20248;-63
2023/12/21 04:12:41;;;;;;;0.00;0.00;;;;;;;;;;1739512;28;20657;-64
2023/12/21 04:13:32;;;;;;;0.00;0.00;;;;;;;;;;1739565;28;20307;-64
2023/12/21 04:14:24;;;;;;;0.00;0.00;;;;;;;;;;1739392;28;20202;-63
2023/12/21 04:15:16;;;;;;;0.00;0.00;;;;;;;;;;1738104;28;20715;-64
2023/12/21 04:16:08;;;;;;;0.00;0.00;;;;;;;;;;1739283;28;20227;-64
2023/12/21 04:17:00;;;;;;;0.00;0.00;;;;;;;;;;1739200;28;20203;-63
2023/12/21 04:17:51;;;;;;;0.00;0.00;;;;;;;;;;1739628;28;20369;-63
2023/12/21 04:18:43;;;;;;;0.00;0.00;;;;;;;;;;1735824;28;20438;-64
2023/12/21 04:19:35;;;;;;;0.00;0.00;;;;;;;;;;1739393;28;20721;-65
2023/12/21 04:20:26;;;;;;;0.00;0.00;;;;;;;;;;1738152;28;20210;-64
2023/12/21 04:21:18;;;;;;;0.00;0.00;;;;;;;;;;1739427;28;20199;-64
2023/12/21 04:22:09;;;;;;;0.00;0.00;;;;;;;;;;1739435;28;20315;-64
2023/12/21 04:23:00;;;;;;;0.00;0.00;;;;;;;;;;1739781;28;20562;-64
2023/12/21 04:23:52;;;;;;;0.00;0.00;;;;;;;;;;1739458;28;20609;-64
2023/12/21 04:24:44;;;;;;;0.00;0.00;;;;;;;;;;1739736;28;20356;-64
2023/12/21 04:25:35;;;;;;;0.00;0.00;;;;;;;;;;1737986;28;20294;-64
2023/12/21 04:26:27;;;;;;;0.00;0.00;;;;;;;;;;1739600;28;20207;-64
2023/12/21 04:27:18;;;;;;;0.00;0.00;;;;;;;;;;1739023;28;20261;-64
2023/12/21 04:28:10;;;;;;;0.00;0.00;;;;;;;;;;1739158;28;21612;-63
2023/12/21 04:29:02;;;;;;;0.00;0.00;;;;;;;;;;1738978;28;20237;-65
2023/12/21 04:29:53;;;;;;;0.00;0.00;;;;;;;;;;1739500;28;20312;-63
2023/12/21 04:30:44;;;;;;;0.00;0.00;;;;;;;;;;1738334;28;20238;-64
2023/12/21 04:31:37;;;;;;;0.00;0.00;;;;;;;;;;1739497;28;20199;-63
2023/12/21 04:32:28;;;;;;;0.00;0.00;;;;;;;;;;1738343;28;20305;-63
2023/12/21 04:33:19;;;;;;;0.00;0.00;;;;;;;;;;1739824;28;20206;-64
2023/12/21 04:34:11;;;;;;;0.00;0.00;;;;;;;;;;1738838;28;20206;-63
2023/12/21 04:35:02;;;;;;;0.00;0.00;;;;;;;;;;1739884;28;20354;-64
2023/12/21 04:35:53;;;;;;;0.00;0.00;;;;;;;;;;1736645;28;20829;-63
2023/12/21 04:36:45;;;;;;;0.00;0.00;;;;;;;;;;1738747;28;20648;-63
2023/12/21 04:37:36;;;;;;;0.00;0.00;;;;;;;;;;1739247;28;20281;-63
2023/12/21 04:38:27;;;;;;;0.00;0.00;;;;;;;;;;1738985;28;20222;-64
2023/12/21 04:39:20;;;;;;;0.00;0.00;;;;;;;;;;1739301;28;20214;-63
2023/12/21 04:40:11;;;;;;;0.00;0.00;;;;;;;;;;1738911;28;20264;-63
2023/12/21 04:41:02;;;;;;;0.00;0.00;;;;;;;;;;1738203;28;20241;-64
2023/12/21 04:41:54;;;;;;;0.00;0.00;;;;;;;;;;1739715;28;20210;-64
2023/12/21 04:42:51;;;;;;;0.00;0.00;;;;;;;;;;1739499;28;20251;-63
2023/12/21 04:43:44;;;;;;;0.00;0.00;;;;;;;;;;1739325;28;20652;-63
2023/12/21 04:44:36;;;;;;;0.08;0.08;;;;;;;;;;1739282;28;20203;-64
2023/12/21 04:45:27;;;;;;;0.00;0.00;;;;;;;;;;1737917;28;20211;-63
2023/12/21 04:46:18;;;;;;;0.00;0.00;;;;;;;;;;1739206;28;20934;-63
2023/12/21 04:47:11;;;;;;;0.00;0.00;;;;;;;;;;1738879;28;20264;-64
2023/12/21 04:48:02;;;;;;;0.00;0.00;;;;;;;;;;1738865;28;20247;-64
2023/12/21 04:48:53;;;;;;;0.00;0.00;;;;;;;;;;1737097;28;20199;-64
2023/12/21 04:49:45;;;;;;;0.00;0.00;;;;;;;;;;1739698;28;20320;-64
2023/12/21 04:50:36;;;;;;;0.00;0.00;;;;;;;;;;1737762;28;20234;-64
2023/12/21 04:51:27;;;;;;;0.00;0.00;;;;;;;;;;1739652;28;20222;-64
2023/12/21 04:52:19;;;;;;;0.00;0.00;;;;;;;;;;1739030;28;20265;-64
2023/12/21 04:53:10;;;;;;;0.00;0.00;;;;;;;;;;1739519;28;20324;-64
2023/12/21 04:54:01;;;;;;;0.00;0.00;;;;;;;;;;1739102;28;20207;-64
2023/12/21 04:54:53;;;;;;;0.00;0.00;;;;;;;;;;1739813;28;20646;-64
2023/12/21 04:55:44;;;;;;;0.00;0.00;;;;;;;;;;1737770;28;20235;-64
2023/12/21 04:56:39;;;;;;;0.00;0.00;;;;;;;;;;1739424;28;20322;-64
2023/12/21 04:57:31;;;;;;;0.00;0.00;;;;;;;;;;1738181;28;20226;-64
2023/12/21 04:58:22;;;;;;;0.00;0.00;;;;;;;;;;1739323;28;20309;-65
2023/12/21 04:59:15;;;;;;;0.00;0.00;;;;;;;;;;1738671;28;20202;-64
2023/12/21 05:00:07;;;;;;;0.00;0.00;;;;;;;;;;1739332;28;20207;-63
2023/12/21 05:00:58;;;;;;;0.00;0.00;;;;;;;;;;1737249;28;20846;-64
2023/12/21 05:01:52;;;;;;;0.00;0.00;;;;;;;;;;1739763;28;20760;-64
2023/12/21 05:02:43;;;;;;;0.00;0.00;;;;;;;;;;1738589;28;20597;-63
2023/12/21 05:03:35;;;;;;;0.00;0.00;;;;;;;;;;1739425;28;20535;-64
2023/12/21 05:04:26;;;;;;;0.00;0.00;;;;;;;;;;1739102;28;20215;-64
2023/12/21 05:05:19;;;;;;;0.00;0.00;;;;;;;;;;1737788;28;20198;-64
2023/12/21 05:06:10;;;;;;;0.00;0.00;;;;;;;;;;1739317;28;20207;-64
2023/12/21 05:07:08;;;;;;;0.00;0.00;;;;;;;;;;1739081;28;20241;-64
2023/12/21 05:08:00;;;;;;;0.00;0.00;;;;;;;;;;1739306;28;20195;-65
2023/12/21 05:08:51;;;;;;;0.00;0.00;;;;;;;;;;1739173;28;20678;-63
2023/12/21 05:09:43;;;;;;;0.00;0.00;;;;;;;;;;1739328;28;20298;-64